Main page
METAR-TAF:

METAR-TAF

Airports :

Bergen Airport. Flesland

Bergen, Norway

latitude: 60-17N, longitude: 005-14E, elevation: 5 m

Current weather observation

The report was made 26 minutes ago, at 15:20 UTC
Wind 9 kt from the North/Northwest
Temperature 17°C
Humidity 59%
Pressure 1011 hPa
Visibility 10 km or more
Few clouds at a height of 4000 ft
Scattered clouds at a height of 8000 ft
Scattered clouds at a height of 13000 ft

METAR: ENBR 201520Z 34009KT 9999 FEW040 SCT080 SCT130 17/09 Q1011 NOSIG RMK WIND 1200FT 34012KT

Time: 17:46 (15:46 UTC)

Forecast

Forecast valid from 20 at 12 UTC to 21 at 12 UTC
Wind 10 kt from the North/Northwest
Visibility 10 km or more
Few clouds at a height of 4000 ft
Becoming
from 20 at 18 UTC to 20 at 20 UTC
Wind 5 kt from variable directions

TAF: ENBR 2012/2112 33010KT 9999 FEW040 BECMG 2018/2020 VRB05KT

Weather observations and forecasts of more than 4000 airports (METAR and TAF reports).

The available stations are represented by yellow and red dots on the map.

Hover mouse over dot to see the name of the station.

Then click to see weather observations and forecasts.

To change the map : click on the green buttons with a black cross to zoom in, on the green button with a dash to zoom out, or on the green arrows for adjacent maps.


METAR-TAF: